Time;durP1;ratioP1;P1;durP2;ratioP2;P2;SDS_P1;SDS_P2;PMS_P1;PMS_P2;Temp;Humidity;BMP_temperature;BMP_pressure;BME280_temperature;BME280_humidity;BME280_pressure;Samples;Min_cycle;Max_cycle;Signal;HPM_P1;HPM_P2
2022/12/26 00:00:24;;;;;;;5.13;2.70;;;;;;;;;;4997951;28;20018;-76
2022/12/26 00:02:50;;;;;;;3.95;2.40;;;;;;;;;;5012020;28;20491;-75
2022/12/26 00:05:16;;;;;;;4.15;1.92;;;;;;;;;;4980646;28;20034;-76
2022/12/26 00:07:42;;;;;;;6.65;2.63;;;;;;;;;;4989713;28;20065;-76
2022/12/26 00:10:08;;;;;;;3.03;1.73;;;;;;;;;;4995844;28;20024;-76
2022/12/26 00:12:34;;;;;;;2.88;2.00;;;;;;;;;;5008278;28;20029;-76
2022/12/26 00:15:01;;;;;;;3.03;2.15;;;;;;;;;;5011428;28;20021;-76
2022/12/26 00:17:27;;;;;;;4.00;2.45;;;;;;;;;;4997088;28;20428;-76
2022/12/26 00:19:53;;;;;;;4.93;2.47;;;;;;;;;;5009736;28;20404;-77
2022/12/26 00:22:19;;;;;;;4.22;1.85;;;;;;;;;;5006267;28;20034;-76
2022/12/26 00:24:45;;;;;;;4.30;1.65;;;;;;;;;;4991908;28;20030;-74
2022/12/26 00:27:11;;;;;;;4.38;2.40;;;;;;;;;;5004073;28;20072;-76
2022/12/26 00:29:37;;;;;;;4.10;2.80;;;;;;;;;;4979297;28;20101;-76
2022/12/26 00:32:03;;;;;;;3.20;1.80;;;;;;;;;;5023718;28;20089;-82
2022/12/26 00:34:29;;;;;;;4.38;2.60;;;;;;;;;;5014930;28;20046;-81
2022/12/26 00:36:55;;;;;;;2.88;1.92;;;;;;;;;;5024288;28;20040;-82
2022/12/26 00:39:21;;;;;;;4.95;3.47;;;;;;;;;;5011678;28;20026;-76
2022/12/26 00:41:50;;;;;;;6.82;5.35;;;;;;;;;;5009233;28;20033;-77
2022/12/26 00:44:16;;;;;;;5.65;3.75;;;;;;;;;;5000629;28;20476;-76
2022/12/26 00:46:42;;;;;;;8.20;5.97;;;;;;;;;;5006693;28;20603;-77
2022/12/26 00:49:08;;;;;;;9.25;5.57;;;;;;;;;;5006873;28;20029;-77
2022/12/26 00:51:34;;;;;;;8.90;6.50;;;;;;;;;;4982077;28;20069;-76
2022/12/26 00:54:00;;;;;;;8.80;6.07;;;;;;;;;;4978446;28;20022;-76
2022/12/26 00:56:26;;;;;;;8.23;5.93;;;;;;;;;;4983949;28;20095;-75
2022/12/26 00:58:52;;;;;;;10.48;5.68;;;;;;;;;;5004676;28;20105;-74
2022/12/26 01:01:22;;;;;;;8.20;5.85;;;;;;;;;;5009118;28;20057;-76
2022/12/26 01:03:49;;;;;;;10.15;6.43;;;;;;;;;;4998731;28;20026;-75
2022/12/26 01:06:15;;;;;;;12.50;7.13;;;;;;;;;;5009929;28;20495;-76
2022/12/26 01:08:42;;;;;;;14.05;8.05;;;;;;;;;;5002907;28;20080;-75
2022/12/26 01:11:09;;;;;;;10.65;7.63;;;;;;;;;;5002955;28;20022;-76
2022/12/26 01:13:36;;;;;;;11.50;8.13;;;;;;;;;;5010724;28;20580;-72
2022/12/26 01:16:02;;;;;;;12.60;8.40;;;;;;;;;;5014831;28;20045;-76
2022/12/26 01:18:28;;;;;;;14.40;8.40;;;;;;;;;;5007624;28;20023;-76
2022/12/26 01:20:57;;;;;;;14.98;9.70;;;;;;;;;;4994918;28;20030;-75
2022/12/26 01:23:23;;;;;;;14.85;9.23;;;;;;;;;;5009624;28;20037;-77
2022/12/26 01:25:49;;;;;;;14.35;9.07;;;;;;;;;;4998896;28;20050;-78
2022/12/26 01:28:15;;;;;;;15.77;8.88;;;;;;;;;;5009173;28;20492;-78
2022/12/26 01:30:41;;;;;;;14.38;8.60;;;;;;;;;;4994553;28;20030;-79
2022/12/26 01:33:07;;;;;;;15.27;9.13;;;;;;;;;;4994648;28;20018;-76
2022/12/26 01:35:33;;;;;;;14.02;9.18;;;;;;;;;;4994521;28;20202;-76
2022/12/26 01:37:59;;;;;;;15.68;9.70;;;;;;;;;;5010365;28;20025;-76
2022/12/26 01:40:25;;;;;;;19.92;9.30;;;;;;;;;;5000743;28;20376;-77
2022/12/26 01:42:54;;;;;;;15.63;8.75;;;;;;;;;;5004983;28;20030;-76
2022/12/26 01:45:28;;;;;;;14.95;9.68;;;;;;;;;;4993998;28;20069;-74
2022/12/26 01:47:57;;;;;;;14.20;8.73;;;;;;;;;;4993829;28;20026;-76
2022/12/26 01:50:29;;;;;;;12.20;8.10;;;;;;;;;;5007948;28;20030;-76
2022/12/26 01:52:57;;;;;;;13.68;8.90;;;;;;;;;;5004207;28;20041;-75
2022/12/26 01:55:23;;;;;;;13.40;9.27;;;;;;;;;;4998750;28;20117;-76
2022/12/26 01:57:53;;;;;;;13.63;9.02;;;;;;;;;;5009995;28;20185;-75
2022/12/26 02:00:19;;;;;;;16.25;8.95;;;;;;;;;;4994187;28;20030;-76
2022/12/26 02:05:33;;;;;;;14.68;8.90;;;;;;;;;;4998365;28;20056;-77
2022/12/26 02:08:03;;;;;;;13.38;8.98;;;;;;;;;;5009254;28;20026;-76
2022/12/26 02:10:31;;;;;;;11.90;8.70;;;;;;;;;;5000245;28;20392;-77
2022/12/26 02:12:57;;;;;;;9.35;6.43;;;;;;;;;;5010094;28;20030;-75
2022/12/26 02:15:23;;;;;;;9.88;7.10;;;;;;;;;;4998799;28;20023;-75
2022/12/26 02:17:49;;;;;;;8.25;5.80;;;;;;;;;;4994205;28;20093;-75
2022/12/26 02:20:20;;;;;;;11.45;7.03;;;;;;;;;;5008485;28;20473;-76
2022/12/26 02:23:01;;;;;;;12.20;7.40;;;;;;;;;;5002500;28;20056;-75
2022/12/26 02:25:30;;;;;;;9.07;6.35;;;;;;;;;;4998275;28;20117;-77
2022/12/26 02:28:12;;;;;;;10.43;7.00;;;;;;;;;;4991241;28;20036;-77
2022/12/26 02:30:38;;;;;;;;;;;;;;;;;;5001748;28;20014;-76
2022/12/26 02:33:22;;;;;;;13.38;7.13;;;;;;;;;;5012603;28;19999;-76
2022/12/26 02:36:01;;;;;;;13.13;8.50;;;;;;;;;;4977766;28;20022;-77
2022/12/26 02:38:45;;;;;;;11.18;7.95;;;;;;;;;;4999114;28;20058;-76
2022/12/26 02:41:14;;;;;;;13.25;8.55;;;;;;;;;;5000410;28;20030;-75
2022/12/26 02:43:40;;;;;;;15.30;8.73;;;;;;;;;;5009748;28;20030;-77
2022/12/26 02:49:16;;;;;;;11.15;6.82;;;;;;;;;;5003437;28;20099;-74
2022/12/26 03:14:36;;;;;;;4.10;2.53;;;;;;;;;;4999812;28;20056;-77
2022/12/26 03:17:19;;;;;;;2.63;1.80;;;;;;;;;;5000779;28;20109;-76
2022/12/26 03:19:59;;;;;;;2.33;2.13;;;;;;;;;;4990892;28;20038;-75
2022/12/26 03:22:37;;;;;;;2.92;2.05;;;;;;;;;;4998902;28;20079;-75
2022/12/26 03:27:54;;;;;;;4.47;2.95;;;;;;;;;;5007796;28;20423;-75
2022/12/26 03:34:15;;;;;;;4.75;2.10;;;;;;;;;;5012333;28;20395;-75
2022/12/26 03:35:51;;;;;;;3.88;2.72;;;;;;;;;;4995373;28;20031;-74
2022/12/26 03:38:19;;;;;;;3.72;1.88;;;;;;;;;;5006486;28;20478;-76
2022/12/26 04:44:09;;;;;;;4.22;2.00;;;;;;;;;;4957543;28;20038;-75
2022/12/26 04:46:42;;;;;;;4.25;1.75;;;;;;;;;;4966556;28;20043;-74
2022/12/26 04:51:55;;;;;;;5.80;1.45;;;;;;;;;;4998694;28;20077;-75
2022/12/26 04:54:21;;;;;;;2.90;1.77;;;;;;;;;;5009161;28;20101;-76
2022/12/26 04:56:47;;;;;;;2.45;1.60;;;;;;;;;;5005121;28;20040;-76
2022/12/26 04:59:14;;;;;;;1.85;1.60;;;;;;;;;;5001475;28;20022;-77
2022/12/26 05:10:07;;;;;;;1.85;1.67;;;;;;;;;;4963296;28;20120;-76
2022/12/26 05:12:33;;;;;;;2.47;1.55;;;;;;;;;;5004327;28;20031;-78
2022/12/26 05:14:59;;;;;;;1.92;1.50;;;;;;;;;;5005347;28;20022;-76
2022/12/26 05:28:40;;;;;;;5.10;1.83;;;;;;;;;;4999988;28;20029;-75
2022/12/26 05:31:06;;;;;;;4.13;2.03;;;;;;;;;;5003384;28;20033;-76
2022/12/26 05:36:19;;;;;;;4.25;1.77;;;;;;;;;;5014810;28;20057;-75
2022/12/26 05:38:45;;;;;;;4.43;2.03;;;;;;;;;;5010042;28;20468;-75
2022/12/26 05:41:11;;;;;;;3.05;2.20;;;;;;;;;;5013283;28;20114;-75
2022/12/26 05:43:37;;;;;;;3.45;2.15;;;;;;;;;;4999074;28;20520;-76
2022/12/26 05:46:03;;;;;;;2.95;2.15;;;;;;;;;;4994458;28;20023;-75
2022/12/26 05:48:29;;;;;;;6.93;2.40;;;;;;;;;;5000451;28;20034;-75
2022/12/26 05:51:01;;;;;;;2.80;1.73;;;;;;;;;;5003613;28;20554;-75
2022/12/26 05:53:28;;;;;;;7.45;2.75;;;;;;;;;;5008633;28;20037;-76
2022/12/26 05:55:54;;;;;;;2.58;2.22;;;;;;;;;;4995590;28;20479;-75
2022/12/26 05:58:20;;;;;;;4.68;2.72;;;;;;;;;;4998954;28;20380;-75
2022/12/26 06:00:47;;;;;;;4.30;2.72;;;;;;;;;;4986758;28;20026;-79
2022/12/26 06:03:13;;;;;;;4.57;2.35;;;;;;;;;;5006344;28;20026;-77
2022/12/26 06:05:41;;;;;;;6.63;2.92;;;;;;;;;;5013405;28;20040;-76
2022/12/26 06:08:07;;;;;;;9.00;3.30;;;;;;;;;;4981057;28;20030;-75
2022/12/26 06:10:33;;;;;;;5.95;3.10;;;;;;;;;;5006610;28;20022;-75
2022/12/26 06:13:00;;;;;;;4.28;2.70;;;;;;;;;;5007846;28;20404;-77
2022/12/26 06:15:26;;;;;;;6.40;2.47;;;;;;;;;;4999198;28;20145;-76
2022/12/26 06:17:55;;;;;;;3.40;2.63;;;;;;;;;;5009460;28;20038;-75
2022/12/26 06:20:21;;;;;;;4.57;2.38;;;;;;;;;;5001379;28;20392;-76
2022/12/26 06:22:47;;;;;;;5.88;2.40;;;;;;;;;;5005597;28;20027;-76
2022/12/26 06:25:13;;;;;;;2.85;2.42;;;;;;;;;;5006404;28;20108;-76
2022/12/26 06:27:42;;;;;;;3.42;2.22;;;;;;;;;;4997341;28;20022;-75
2022/12/26 06:30:08;;;;;;;3.88;2.65;;;;;;;;;;4997612;28;20053;-75
2022/12/26 06:32:34;;;;;;;2.70;2.20;;;;;;;;;;5005684;28;20022;-75
2022/12/26 06:35:00;;;;;;;5.43;2.40;;;;;;;;;;5004063;28;20044;-77
2022/12/26 06:37:26;;;;;;;3.60;2.45;;;;;;;;;;4997773;28;20085;-75
2022/12/26 06:39:52;;;;;;;4.00;2.67;;;;;;;;;;4976879;28;20034;-75
2022/12/26 06:42:18;;;;;;;4.88;2.22;;;;;;;;;;5012791;28;20496;-75
2022/12/26 06:44:44;;;;;;;2.97;2.15;;;;;;;;;;4987111;28;20030;-75
2022/12/26 06:47:10;;;;;;;2.97;2.00;;;;;;;;;;5004569;28;20497;-75
2022/12/26 06:49:36;;;;;;;5.85;2.28;;;;;;;;;;4996923;28;20088;-75
2022/12/26 06:52:02;;;;;;;3.08;1.90;;;;;;;;;;4995807;28;20453;-77
2022/12/26 06:54:28;;;;;;;7.68;3.03;;;;;;;;;;5006291;28;20026;-77
2022/12/26 06:56:54;;;;;;;4.25;2.35;;;;;;;;;;4993848;28;20034;-76
2022/12/26 06:59:20;;;;;;;3.67;2.35;;;;;;;;;;5005871;28;20033;-76
2022/12/26 07:01:46;;;;;;;5.03;2.33;;;;;;;;;;4996047;28;20428;-75
2022/12/26 07:04:13;;;;;;;3.63;2.25;;;;;;;;;;4990253;28;20026;-75
2022/12/26 07:06:39;;;;;;;6.40;2.80;;;;;;;;;;5000356;28;20018;-76
2022/12/26 07:09:08;;;;;;;4.15;1.80;;;;;;;;;;5000351;28;20476;-76
2022/12/26 07:11:35;;;;;;;4.80;1.83;;;;;;;;;;4975812;28;20030;-78
2022/12/26 07:14:02;;;;;;;4.57;2.25;;;;;;;;;;5008902;28;20084;-75
2022/12/26 07:16:28;;;;;;;3.17;2.30;;;;;;;;;;4999911;28;20026;-75
2022/12/26 07:18:54;;;;;;;4.60;2.28;;;;;;;;;;5011990;28;20032;-75
2022/12/26 07:21:21;;;;;;;4.28;2.25;;;;;;;;;;4998456;28;20057;-76
2022/12/26 07:23:47;;;;;;;4.80;2.20;;;;;;;;;;4992885;28;20026;-76
2022/12/26 07:26:13;;;;;;;4.00;2.05;;;;;;;;;;4997037;28;20021;-76
2022/12/26 07:28:42;;;;;;;7.05;2.80;;;;;;;;;;5012060;28;20025;-76
2022/12/26 07:31:08;;;;;;;4.78;2.42;;;;;;;;;;5000617;28;20057;-75
2022/12/26 07:33:34;;;;;;;4.10;2.17;;;;;;;;;;4994171;28;20030;-76
2022/12/26 07:36:01;;;;;;;4.25;2.47;;;;;;;;;;5005230;28;20108;-75
2022/12/26 07:38:27;;;;;;;5.07;2.58;;;;;;;;;;5004840;28;20080;-76
2022/12/26 07:40:57;;;;;;;6.88;3.45;;;;;;;;;;4992287;28;20489;-76
2022/12/26 07:43:23;;;;;;;5.25;2.10;;;;;;;;;;5006224;28;20093;-75
2022/12/26 07:45:49;;;;;;;3.38;2.40;;;;;;;;;;4996126;28;20120;-76
2022/12/26 07:48:15;;;;;;;4.20;2.42;;;;;;;;;;5006260;28;20100;-79
2022/12/26 07:50:45;;;;;;;3.97;2.08;;;;;;;;;;4992358;28;20030;-78
2022/12/26 07:53:11;;;;;;;4.95;2.17;;;;;;;;;;5003722;28;20029;-79
2022/12/26 07:55:37;;;;;;;3.80;2.10;;;;;;;;;;4995719;28;20038;-77
2022/12/26 07:58:03;;;;;;;5.20;2.58;;;;;;;;;;5007494;28;20026;-76
2022/12/26 08:00:35;;;;;;;5.43;2.65;;;;;;;;;;4998573;28;20103;-78
2022/12/26 08:03:01;;;;;;;4.38;2.17;;;;;;;;;;5000360;28;20086;-75
2022/12/26 08:05:27;;;;;;;4.60;2.53;;;;;;;;;;4991487;28;20034;-76
2022/12/26 08:07:53;;;;;;;2.13;1.83;;;;;;;;;;5007498;28;20129;-73
2022/12/26 08:10:19;;;;;;;2.60;1.90;;;;;;;;;;4996893;28;20409;-75
2022/12/26 08:12:45;;;;;;;4.13;2.00;;;;;;;;;;5008719;28;20076;-76
2022/12/26 08:15:13;;;;;;;4.10;1.77;;;;;;;;;;4998768;28;20026;-77
2022/12/26 08:17:39;;;;;;;4.55;2.40;;;;;;;;;;5007235;28;20026;-76
2022/12/26 08:20:06;;;;;;;5.50;2.70;;;;;;;;;;4995173;28;20026;-76
2022/12/26 08:22:32;;;;;;;4.88;2.25;;;;;;;;;;5004399;28;20046;-77
2022/12/26 08:24:58;;;;;;;4.75;1.92;;;;;;;;;;4984462;28;20057;-76
2022/12/26 08:27:24;;;;;;;2.90;2.00;;;;;;;;;;4996372;28;20477;-76
2022/12/26 08:29:50;;;;;;;2.80;1.48;;;;;;;;;;4991498;28;20018;-77
2022/12/26 08:32:16;;;;;;;4.38;1.80;;;;;;;;;;5006555;28;20084;-76
2022/12/26 08:34:42;;;;;;;7.78;2.10;;;;;;;;;;5000106;28;20440;-76
2022/12/26 08:37:08;;;;;;;3.65;1.50;;;;;;;;;;4979802;28;20085;-75
2022/12/26 08:39:34;;;;;;;2.03;1.65;;;;;;;;;;4991446;28;20104;-73
2022/12/26 08:42:00;;;;;;;4.22;1.90;;;;;;;;;;5010124;28;20030;-75
2022/12/26 08:44:26;;;;;;;2.63;1.85;;;;;;;;;;4987055;28;20173;-74
2022/12/26 08:46:52;;;;;;;4.68;2.45;;;;;;;;;;5001369;28;20446;-75
2022/12/26 08:49:18;;;;;;;3.90;1.77;;;;;;;;;;4997592;28;20033;-75
2022/12/26 08:51:44;;;;;;;3.45;1.70;;;;;;;;;;5007766;28;20022;-75
2022/12/26 08:54:10;;;;;;;3.33;2.15;;;;;;;;;;4995337;28;20030;-75
2022/12/26 08:56:36;;;;;;;3.80;2.17;;;;;;;;;;5003361;28;20026;-75
2022/12/26 08:59:02;;;;;;;5.65;2.17;;;;;;;;;;5001892;28;20422;-76
2022/12/26 09:01:31;;;;;;;4.18;1.92;;;;;;;;;;4996249;28;20106;-75
2022/12/26 09:04:00;;;;;;;4.78;1.80;;;;;;;;;;4993424;28;20036;-75
2022/12/26 09:06:27;;;;;;;5.90;2.25;;;;;;;;;;5001387;28;20022;-76
2022/12/26 09:08:53;;;;;;;2.30;1.48;;;;;;;;;;5004451;28;20034;-74
2022/12/26 09:11:21;;;;;;;2.78;2.08;;;;;;;;;;5008300;28;20026;-75
2022/12/26 09:13:47;;;;;;;6.57;1.95;;;;;;;;;;4998656;28;20030;-76
2022/12/26 09:16:18;;;;;;;3.92;2.30;;;;;;;;;;5010325;28;20015;-76
2022/12/26 09:18:47;;;;;;;5.03;2.15;;;;;;;;;;5003195;28;20029;-76
2022/12/26 09:21:14;;;;;;;2.28;1.80;;;;;;;;;;5002334;28;20089;-76
2022/12/26 09:23:41;;;;;;;4.32;2.08;;;;;;;;;;5010852;28;20037;-77
2022/12/26 09:26:09;;;;;;;2.40;1.77;;;;;;;;;;4998145;28;20531;-75
2022/12/26 09:28:35;;;;;;;4.35;1.67;;;;;;;;;;5013922;28;20030;-76
2022/12/26 09:31:02;;;;;;;3.60;1.67;;;;;;;;;;4985922;28;20069;-76
2022/12/26 09:33:32;;;;;;;5.70;2.05;;;;;;;;;;5010087;28;20044;-76
2022/12/26 09:36:03;;;;;;;6.07;2.53;;;;;;;;;;4995113;28;20022;-77
2022/12/26 09:38:33;;;;;;;6.78;2.10;;;;;;;;;;4983574;28;20068;-75
2022/12/26 09:41:25;;;;;;;2.10;1.73;;;;;;;;;;5014597;28;20026;-76
2022/12/26 09:44:11;;;;;;;4.22;1.92;;;;;;;;;;4960906;28;20048;-76
2022/12/26 09:46:37;;;;;;;3.42;1.92;;;;;;;;;;4968584;28;20034;-76
2022/12/26 09:49:10;;;;;;;2.63;1.65;;;;;;;;;;5002516;28;20118;-75
2022/12/26 09:51:44;;;;;;;3.28;1.60;;;;;;;;;;4994684;28;20129;-77
2022/12/26 09:54:41;;;;;;;3.88;2.15;;;;;;;;;;4983285;28;20021;-77
2022/12/26 09:57:30;;;;;;;3.60;1.83;;;;;;;;;;5001697;28;20030;-75
2022/12/26 10:00:00;;;;;;;5.03;2.15;;;;;;;;;;4990318;28;20039;-78
2022/12/26 10:02:33;;;;;;;4.30;1.98;;;;;;;;;;5009297;28;20045;-75
2022/12/26 10:05:08;;;;;;;4.15;2.00;;;;;;;;;;4979457;28;20105;-76
2022/12/26 10:07:51;;;;;;;5.47;2.00;;;;;;;;;;5000224;28;20058;-76
2022/12/26 10:10:46;;;;;;;;;;;;;;;;;;;;;
2022/12/26 10:13:39;;;;;;;2.25;1.70;;;;;;;;;;5024511;28;20048;-78
2022/12/26 10:16:19;;;;;;;3.08;1.95;;;;;;;;;;5009111;28;20025;-75
2022/12/26 10:18:49;;;;;;;4.55;2.10;;;;;;;;;;4993575;28;20030;-76
2022/12/26 10:21:24;;;;;;;2.40;1.60;;;;;;;;;;4978624;28;20125;-75
2022/12/26 10:24:02;;;;;;;4.28;2.00;;;;;;;;;;5013054;28;20030;-74
2022/12/26 10:26:36;;;;;;;4.53;2.05;;;;;;;;;;5015431;28;20029;-76
2022/12/26 10:29:22;;;;;;;3.60;2.53;;;;;;;;;;5018542;28;20037;-77
2022/12/26 10:31:53;;;;;;;3.22;1.80;;;;;;;;;;4994899;28;20116;-79
2022/12/26 10:34:31;;;;;;;7.95;2.47;;;;;;;;;;5018849;28;20025;-78
2022/12/26 10:37:02;;;;;;;4.45;2.30;;;;;;;;;;5025393;28;20022;-79
2022/12/26 10:39:32;;;;;;;6.13;2.38;;;;;;;;;;5031281;28;20026;-80
2022/12/26 10:42:00;;;;;;;7.38;2.47;;;;;;;;;;5028184;28;20029;-76
2022/12/26 10:44:26;;;;;;;6.15;2.20;;;;;;;;;;5012974;28;20108;-80
2022/12/26 10:47:11;;;;;;;4.88;1.83;;;;;;;;;;5015331;28;20487;-75
2022/12/26 10:49:38;;;;;;;4.72;2.33;;;;;;;;;;4999064;28;20032;-79
2022/12/26 10:52:04;;;;;;;5.50;2.00;;;;;;;;;;5008901;28;20085;-72
2022/12/26 10:54:30;;;;;;;3.90;2.42;;;;;;;;;;4997631;28;20468;-76
2022/12/26 10:57:34;;;;;;;3.88;2.10;;;;;;;;;;5023921;22;20066;-80
2022/12/26 11:10:08;;;;;;;3.65;1.83;;;;;;;;;;4970490;28;20073;-79
2022/12/26 11:13:11;;;;;;;3.13;1.88;;;;;;;;;;4989386;28;20033;-79
2022/12/26 11:16:18;;;;;;;3.45;2.00;;;;;;;;;;4998135;28;20037;-80
2022/12/26 11:19:04;;;;;;;3.55;1.80;;;;;;;;;;4972622;28;20022;-78
2022/12/26 11:21:33;;;;;;;3.85;1.88;;;;;;;;;;4980467;28;20027;-79
2022/12/26 11:24:08;;;;;;;4.82;2.22;;;;;;;;;;5008727;28;20523;-78
2022/12/26 11:26:40;;;;;;;3.25;1.90;;;;;;;;;;4984073;28;20026;-79
2022/12/26 11:29:17;;;;;;;5.50;2.03;;;;;;;;;;4983296;28;20026;-78
2022/12/26 11:31:53;;;;;;;2.70;1.52;;;;;;;;;;5009297;28;20018;-80
2022/12/26 11:34:44;;;;;;;3.67;1.60;;;;;;;;;;4981004;28;20030;-79
2022/12/26 11:37:10;;;;;;;;;;;;;;;;;;4991412;28;20046;-78
2022/12/26 11:39:42;;;;;;;4.60;1.58;;;;;;;;;;4996704;28;19916;-78
2022/12/26 11:42:10;;;;;;;5.15;1.73;;;;;;;;;;4980833;28;20028;-77
2022/12/26 11:44:40;;;;;;;2.63;1.77;;;;;;;;;;4987950;28;20096;-79
2022/12/26 11:47:38;;;;;;;5.35;1.48;;;;;;;;;;4988372;28;20116;-78
2022/12/26 11:50:39;;;;;;;2.33;1.73;;;;;;;;;;4997433;28;20028;-77
2022/12/26 11:53:06;;;;;;;;;;;;;;;;;;5002152;28;20022;-77
2022/12/26 11:58:43;;;;;;;1.60;1.20;;;;;;;;;;4967522;28;20050;-80
2022/12/26 12:01:16;;;;;;;3.22;1.33;;;;;;;;;;4968091;28;20033;-77
2022/12/26 12:03:50;;;;;;;4.25;1.65;;;;;;;;;;5001889;28;20029;-78
2022/12/26 12:06:31;;;;;;;2.20;1.27;;;;;;;;;;4989871;28;20114;-77
2022/12/26 12:08:57;;;;;;;;;;;;;;;;;;4998665;28;20042;-77
2022/12/26 12:11:35;;;;;;;1.30;1.20;;;;;;;;;;5014225;28;19906;-79
2022/12/26 12:14:09;;;;;;;4.07;1.25;;;;;;;;;;4985328;28;20117;-78
2022/12/26 12:16:38;;;;;;;2.70;1.38;;;;;;;;;;5012875;28;20026;-79
2022/12/26 12:19:26;;;;;;;3.58;2.00;;;;;;;;;;4990964;28;20030;-78
2022/12/26 12:22:10;;;;;;;2.35;1.40;;;;;;;;;;5016189;28;20093;-80
2022/12/26 12:24:57;;;;;;;2.08;1.42;;;;;;;;;;5005342;28;20500;-80
2022/12/26 12:27:25;;;;;;;3.70;1.90;;;;;;;;;;4982156;28;20530;-79
2022/12/26 12:30:17;;;;;;;4.05;1.80;;;;;;;;;;4993207;28;20089;-78
2022/12/26 12:32:52;;;;;;;3.78;1.70;;;;;;;;;;4995105;28;20070;-79
2022/12/26 12:35:58;;;;;;;3.25;1.20;;;;;;;;;;5009627;28;20037;-79
2022/12/26 12:38:56;;;;;;;1.95;1.38;;;;;;;;;;4988447;28;20045;-81
2022/12/26 12:41:58;;;;;;;3.30;1.38;;;;;;;;;;5019384;28;20033;-80
2022/12/26 12:44:48;;;;;;;2.67;1.58;;;;;;;;;;4973367;28;20026;-78
2022/12/26 12:47:48;;;;;;;;;;;;;;;;;;;;;
2022/12/26 12:50:33;;;;;;;2.72;1.85;;;;;;;;;;4996443;28;20081;-79
2022/12/26 12:53:35;;;;;;;1.67;1.30;;;;;;;;;;4989487;28;20117;-78
2022/12/26 12:56:07;;;;;;;4.53;2.25;;;;;;;;;;4949983;28;20396;-79
2022/12/26 12:58:52;;;;;;;3.20;1.45;;;;;;;;;;5002212;28;20420;-78
2022/12/26 13:01:46;;;;;;;1.88;1.30;;;;;;;;;;5001542;28;20412;-80
2022/12/26 13:04:21;;;;;;;3.72;1.73;;;;;;;;;;4965778;28;20041;-79
2022/12/26 13:09:37;;;;;;;4.18;1.35;;;;;;;;;;4957603;28;20075;-79
2022/12/26 13:12:07;;;;;;;4.13;1.30;;;;;;;;;;4962479;28;20069;-80
2022/12/26 13:18:10;;;;;;;2.33;0.90;;;;;;;;;;4935163;29;20027;-78
2022/12/26 13:20:44;;;;;;;2.05;0.85;;;;;;;;;;4971423;22;20384;-77
2022/12/26 13:26:13;;;;;;;2.80;1.38;;;;;;;;;;4994541;28;20025;-75
2022/12/26 13:28:44;;;;;;;1.55;1.00;;;;;;;;;;4976093;28;20066;-77
2022/12/26 13:31:10;;;;;;;0.77;0.77;;;;;;;;;;4985496;28;20049;-76
2022/12/26 13:33:39;;;;;;;1.83;1.00;;;;;;;;;;5014148;28;20096;-77
2022/12/26 13:36:08;;;;;;;2.10;1.30;;;;;;;;;;4996353;28;20544;-75
2022/12/26 13:38:52;;;;;;;3.22;1.40;;;;;;;;;;5013804;28;20308;-76
2022/12/26 13:44:07;;;;;;;3.05;1.70;;;;;;;;;;5015757;28;20127;-74
2022/12/26 13:46:36;;;;;;;2.47;1.48;;;;;;;;;;4996921;28;20026;-77
2022/12/26 13:49:05;;;;;;;1.80;1.50;;;;;;;;;;5013581;28;20060;-76
2022/12/26 13:51:45;;;;;;;3.30;1.70;;;;;;;;;;4996837;28;20018;-75
2022/12/26 13:54:12;;;;;;;2.00;1.38;;;;;;;;;;4981726;28;20025;-75
2022/12/26 13:56:41;;;;;;;3.33;1.60;;;;;;;;;;5013742;28;20096;-76
2022/12/26 13:59:07;;;;;;;4.50;1.50;;;;;;;;;;4993990;28;20031;-75
2022/12/26 14:01:51;;;;;;;2.63;1.52;;;;;;;;;;5009889;28;20029;-76
2022/12/26 14:04:23;;;;;;;2.10;1.40;;;;;;;;;;5000082;28;20030;-76
2022/12/26 14:07:08;;;;;;;1.38;1.20;;;;;;;;;;4995254;28;20018;-73
2022/12/26 14:09:52;;;;;;;3.08;1.67;;;;;;;;;;5013819;28;20045;-76
2022/12/26 14:12:42;;;;;;;3.97;1.50;;;;;;;;;;4982271;28;20485;-76
2022/12/26 14:15:27;;;;;;;4.55;1.75;;;;;;;;;;5013187;28;20431;-75
2022/12/26 14:18:12;;;;;;;2.53;1.10;;;;;;;;;;5012735;28;20022;-74
2022/12/26 14:20:54;;;;;;;2.63;1.20;;;;;;;;;;4992447;28;20026;-75
2022/12/26 14:23:24;;;;;;;1.85;1.30;;;;;;;;;;4993433;28;20108;-75
2022/12/26 14:25:53;;;;;;;1.30;1.00;;;;;;;;;;5010844;28;20029;-76
2022/12/26 14:28:23;;;;;;;1.13;0.68;;;;;;;;;;5012242;28;20018;-74
2022/12/26 14:30:49;;;;;;;1.27;0.90;;;;;;;;;;5012517;28;20068;-75
2022/12/26 14:33:37;;;;;;;1.42;0.90;;;;;;;;;;5012733;28;20022;-78
2022/12/26 14:36:07;;;;;;;0.73;0.70;;;;;;;;;;4991689;28;20073;-75
2022/12/26 14:38:42;;;;;;;1.45;0.82;;;;;;;;;;4975284;28;20057;-75
2022/12/26 14:43:55;;;;;;;1.13;0.60;;;;;;;;;;5012767;28;20048;-76
2022/12/26 14:46:30;;;;;;;0.90;0.77;;;;;;;;;;4995128;28;20058;-75
2022/12/26 14:49:00;;;;;;;1.38;0.60;;;;;;;;;;5012469;28;20121;-74
2022/12/26 14:51:29;;;;;;;1.15;0.57;;;;;;;;;;5012301;28;20059;-74
2022/12/26 14:54:20;;;;;;;1.75;0.98;;;;;;;;;;5012317;28;20014;-73
2022/12/26 14:56:47;;;;;;;1.20;0.70;;;;;;;;;;5012938;28;20384;-73
2022/12/26 14:59:28;;;;;;;2.17;1.10;;;;;;;;;;4994694;28;20460;-77
2022/12/26 15:02:03;;;;;;;1.05;0.50;;;;;;;;;;5011980;28;20114;-74
2022/12/26 15:04:38;;;;;;;0.77;0.52;;;;;;;;;;5013010;28;20060;-75
2022/12/26 15:07:22;;;;;;;2.17;1.00;;;;;;;;;;5012284;28;20029;-74
2022/12/26 15:10:07;;;;;;;3.17;0.90;;;;;;;;;;4995449;28;20034;-75
2022/12/26 15:12:59;;;;;;;0.95;0.88;;;;;;;;;;5013560;28;20088;-74
2022/12/26 15:15:32;;;;;;;0.70;0.70;;;;;;;;;;4981718;28;20041;-75
2022/12/26 15:18:06;;;;;;;1.08;0.73;;;;;;;;;;5014605;28;20061;-75
2022/12/26 15:20:50;;;;;;;1.02;0.82;;;;;;;;;;5013930;28;20087;-77
2022/12/26 15:23:35;;;;;;;1.00;0.85;;;;;;;;;;4994791;28;20029;-76
2022/12/26 15:26:16;;;;;;;1.38;0.80;;;;;;;;;;5013059;28;20032;-76
2022/12/26 15:29:01;;;;;;;2.67;1.35;;;;;;;;;;5012345;28;20022;-75
2022/12/26 15:31:30;;;;;;;1.55;1.05;;;;;;;;;;5013907;28;20037;-75
2022/12/26 15:34:20;;;;;;;2.92;1.20;;;;;;;;;;4994620;28;20076;-75
2022/12/26 15:36:57;;;;;;;2.63;1.58;;;;;;;;;;5004445;28;20034;-73
2022/12/26 15:39:26;;;;;;;4.18;1.67;;;;;;;;;;5010073;28;20033;-76
2022/12/26 15:41:59;;;;;;;3.00;1.77;;;;;;;;;;4994499;28;20044;-75
2022/12/26 15:44:39;;;;;;;1.30;1.20;;;;;;;;;;5012467;28;20053;-74
2022/12/26 15:47:30;;;;;;;2.80;1.45;;;;;;;;;;5011410;28;20097;-71
2022/12/26 15:50:15;;;;;;;1.77;1.10;;;;;;;;;;5012246;28;20510;-74
2022/12/26 15:52:50;;;;;;;4.45;1.67;;;;;;;;;;5011974;28;20060;-73
2022/12/26 15:55:22;;;;;;;2.20;1.58;;;;;;;;;;4994043;28;20061;-76
2022/12/26 15:57:48;;;;;;;3.35;1.50;;;;;;;;;;5011943;28;20535;-80
2022/12/26 16:00:21;;;;;;;2.67;1.65;;;;;;;;;;5029245;28;20030;-78
2022/12/26 16:02:47;;;;;;;2.28;1.98;;;;;;;;;;5029929;28;20077;-77
2022/12/26 16:05:13;;;;;;;3.13;2.50;;;;;;;;;;5030123;28;20030;-76
2022/12/26 16:07:51;;;;;;;8.07;6.15;;;;;;;;;;5016198;28;20480;-75
2022/12/26 16:10:28;;;;;;;7.57;5.28;;;;;;;;;;4975357;28;20388;-75
2022/12/26 16:12:57;;;;;;;7.68;4.75;;;;;;;;;;4972995;28;20074;-78
2022/12/26 16:15:24;;;;;;;4.60;3.60;;;;;;;;;;5004323;28;20033;-75
2022/12/26 16:17:50;;;;;;;7.15;3.70;;;;;;;;;;5010921;28;20550;-76
2022/12/26 16:23:23;;;;;;;3.40;2.88;;;;;;;;;;5012261;28;20053;-75
2022/12/26 16:25:53;;;;;;;2.78;2.40;;;;;;;;;;5011326;28;20026;-74
2022/12/26 16:28:26;;;;;;;3.88;2.72;;;;;;;;;;5010557;28;20118;-74
2022/12/26 16:30:52;;;;;;;12.55;7.40;;;;;;;;;;4993814;28;20038;-77
2022/12/26 16:33:19;;;;;;;3.95;2.70;;;;;;;;;;5011327;28;20022;-78
2022/12/26 16:35:45;;;;;;;3.47;2.40;;;;;;;;;;5011299;28;20018;-75
2022/12/26 16:38:13;;;;;;;3.28;2.50;;;;;;;;;;5010161;28;20525;-75
2022/12/26 16:40:43;;;;;;;3.22;2.10;;;;;;;;;;5010848;28;20041;-73
2022/12/26 16:43:18;;;;;;;3.58;2.15;;;;;;;;;;5011408;28;20056;-75
2022/12/26 16:45:48;;;;;;;3.10;2.03;;;;;;;;;;4993397;28;20049;-74
2022/12/26 16:48:16;;;;;;;2.53;2.17;;;;;;;;;;5011526;28;20022;-73
2022/12/26 16:50:47;;;;;;;2.45;1.67;;;;;;;;;;5011174;28;20033;-75
2022/12/26 16:53:39;;;;;;;2.97;1.80;;;;;;;;;;5011043;28;20018;-75
2022/12/26 16:56:14;;;;;;;2.00;1.80;;;;;;;;;;4991281;28;20125;-75
2022/12/26 16:58:40;;;;;;;4.15;2.65;;;;;;;;;;4981249;28;20112;-75
2022/12/26 17:01:07;;;;;;;4.43;2.63;;;;;;;;;;5011028;28;20085;-74
2022/12/26 17:03:53;;;;;;;5.70;4.00;;;;;;;;;;5011052;28;20026;-74
2022/12/26 17:06:27;;;;;;;7.65;4.85;;;;;;;;;;4996471;28;20022;-75
2022/12/26 17:08:54;;;;;;;8.57;6.03;;;;;;;;;;5009968;28;20030;-74
2022/12/26 17:11:31;;;;;;;4.38;3.28;;;;;;;;;;4992358;28;20026;-74
2022/12/26 17:13:57;;;;;;;5.03;3.13;;;;;;;;;;5010762;28;20061;-75
2022/12/26 17:16:25;;;;;;;5.35;3.25;;;;;;;;;;5009605;28;20065;-75
2022/12/26 17:18:52;;;;;;;3.45;2.60;;;;;;;;;;4991574;28;20029;-77
2022/12/26 17:21:31;;;;;;;3.67;2.90;;;;;;;;;;5009363;28;20360;-75
2022/12/26 17:24:10;;;;;;;6.50;3.35;;;;;;;;;;5010162;28;20397;-76
2022/12/26 17:26:37;;;;;;;5.72;3.08;;;;;;;;;;5013954;28;20033;-76
2022/12/26 17:29:05;;;;;;;4.32;3.08;;;;;;;;;;5012627;28;20441;-76
2022/12/26 17:31:37;;;;;;;4.13;3.10;;;;;;;;;;5014406;28;20526;-75
2022/12/26 17:34:03;;;;;;;;;;;;;;;;;;5015223;28;20105;-75
2022/12/26 17:36:31;;;;;;;5.03;3.40;;;;;;;;;;5014581;28;19945;-75
2022/12/26 17:39:11;;;;;;;5.18;2.80;;;;;;;;;;5003467;28;20034;-74
2022/12/26 17:41:40;;;;;;;4.50;3.13;;;;;;;;;;5010474;28;20141;-75
2022/12/26 17:44:26;;;;;;;4.75;3.03;;;;;;;;;;4997801;28;20113;-76
2022/12/26 17:46:55;;;;;;;4.65;2.33;;;;;;;;;;5014382;28;20049;-75